Terminal Aerodrome Forecast
Issued by NWS Missoula, MT

Home | Current Version | Previous Version | Text Only | Print | Product List | Glossary On
Versions: 1 2 3 4 5 6 7 8 9 10 11 12 13 14 15 16
309
FTUS45 KMSO 181529 AAA
TAFMSO
TAF AMD
KMSO 181529Z 1815/1912 12003KT 6SM BR VCSH SCT050 OVC070
     FM190200 15003KT 6SM -FZRASN OVC040=

USA.gov is the U.S. government's official web portal to all federal, state and local government web resources and services.